METAR Reports for Maryland

 

KGAI - Gaithersburg, Maryland, USA
Distance from station: NNE 28mi, 44km
Updated: Sat, 22-Jul-2017 9:56pm EDT
Mostly cloudy
Mostly cloudy
 Wind from WSW
Wind: WSW 7 mph , 11 km/h
Temperature: 72°F , 22°C
Dew Point: 72°F , 22°C
Humidity: 100%
Barometer: 29.84 inHg , 1010.5 hPa
Clouds: Mostly cloudy
Visibility: 10 miles , 16 km
Cloud details: Mostly cloudy 11000 ft
2017/07/23 01:56 KGAI 230156Z AUTO 25006KT 10SM BKN110 22/22 A2984 RMK AO2 LTG DSNT SE AND S RAB32E46 SLP124 P0002 T02220217
KCGS - College Park, Maryland, USA
Distance from station: ENE 29mi, 47km
Updated: Sat, 22-Jul-2017 10:28pm EDT
Partly cloudy
Partly cloudy
 Wind from calm
Wind: Calm
Temperature: 73°F , 23°C
Dew Point: 72°F , 22°C
Humidity: 94%
Barometer: 29.79 inHg , 1008.8 hPa
Clouds: Partly cloudy
Visibility: 10 miles , 16 km
Cloud details: Partly cloudy 8000 ft
Partly cloudy 11000 ft
2017/07/23 02:28 KCGS 230228Z AUTO 00000KT 10SM SCT080 SCT110 23/22 A2979 RMK AO1 T02300221
KADW - Andrews Afb, Maryland, USA
Distance from station: E 30mi, 48km
Updated: Sat, 22-Jul-2017 7:38pm EDT
NOT Current
Light rain, Partly cloudy
Light rain, Partly cloudy
 Wind from SE
Wind: SE 5 mph , 7 km/h
Temperature: 72°F , 22°C
Dew Point: 70°F , 21°C
Humidity: 94%
Barometer: 29.79 inHg , 1008.8 hPa
Summary: Light rain
Clouds: Partly cloudy
Visibility: 10 miles , 16 km
Cloud details: Partly cloudy 1300 ft
2017/07/22 23:38 KADW 222338Z AUTO 13004KT 10SM -RA SCT013 22/21 A2979 RMK AO2 LTG DSNT S DZE2259RAB2259 SLP092
 
KFME - Fort Meade, Maryland, USA
Distance from station: ENE 40mi, 64km
Updated: Sat, 22-Jul-2017 10:30pm EDT
Partly cloudy
Partly cloudy
 Wind from WSW
Wind: WSW 6 mph , 9 km/h
Temperature: 72°F , 22°C
Dew Point: 70°F , 21°C
Humidity: 94%
Barometer: 29.81 inHg , 1009.5 hPa
Clouds: Partly cloudy
Visibility: 5 miles , 8 km
Cloud details: Partly cloudy 12000 ft
2017/07/23 02:30 KFME 230230Z AUTO 25005KT 5SM SCT120 22/21 A2981 RMK AO1
KFDK - Frederick, Maryland, USA
Distance from station: N 41mi, 67km
Updated: Sat, 22-Jul-2017 10:25pm EDT
Light drizzle, Partly cloudy
Light drizzle, Partly cloudy
 Wind from SSE
Wind: SSE 3 mph , 6 km/h
Temperature: 73°F , 23°C
Dew Point: 73°F , 23°C
Humidity: 100%
Barometer: 29.83 inHg , 1010.2 hPa
Summary: Light Drizzle
Clouds: Partly cloudy
Visibility: 10 miles , 16 km
Cloud details: Partly cloudy 4900 ft
2017/07/23 02:25 KFDK 230225Z AUTO 15003KT 10SM -DZ SCT049 23/23 A2983 RMK AO2 LTG DSNT E AND SE
KBWI - Balto/Wash Intl, Maryland, USA
Distance from station: ENE 46mi, 75km
Updated: Sat, 22-Jul-2017 9:54pm EDT
Overcast
Overcast
 Wind from W
Wind: W 6 mph , 9 km/h
Temperature: 73°F , 23°C
Dew Point: 73°F , 23°C
Humidity: 100%
Barometer: 29.79 inHg , 1008.8 hPa
Clouds: Overcast
Visibility: 10 miles , 16 km
Cloud details: Partly cloudy 7500 ft
Mostly cloudy 9000 ft
Overcast 20000 ft
2017/07/23 01:54 KBWI 230154Z 28005KT 10SM SCT075 BKN090 OVC200 23/23 A2979 RMK AO2 SLP087 CONS LTGIC DSNT SW CB DSNT SW MOV E T02330228
 
KNAK - Annapolis/Naval, Maryland, USA
Distance from station: ENE 52mi, 83km
Updated: Sat, 22-Jul-2017 9:54pm EDT
Partly cloudy
Partly cloudy
 Wind from WNW
Wind: WNW 8 mph , 13 km/h
Temperature: 73°F , 23°C
Dew Point: 73°F , 23°C
Humidity: 100%
Barometer: 29.80 inHg , 1009.1 hPa
Clouds: Partly cloudy
Visibility: 7 miles , 11 km
Cloud details: Partly cloudy 9000 ft
2017/07/23 01:54 KNAK 230154Z AUTO 30007KT 7SM SCT090 23/23 A2980 RMK AO2 SLP094 T02280228 $
KDMH - Baltimore/Dwntwn, Maryland, USA
Distance from station: NE 54mi, 87km
Updated: Sat, 22-Jul-2017 9:54pm EDT

 
Temperature: 77°F , 25°C
Dew Point: 73°F , 23°C
Humidity: 89%
Barometer: 29.80 inHg , 1009.1 hPa
2017/07/23 01:54 KDMH 230154Z AUTO 25/23 A2980 RMK AO1 SLP089 T02500228
KRSP - Nsf Thurmont, Maryland, USA
Distance from station: N 58mi, 93km
Updated: Sat, 22-Jul-2017 10:25pm EDT
Mist, Few clouds
Mist, Few clouds
 Wind from NW
Wind: NW 12 mph , 19 km/h, Gust: 32 mph , 52 km/h
Temperature: 70°F , 21°C
Dew Point: 70°F , 21°C
Humidity: 100%
Barometer: 29.86 inHg , 1011.2 hPa
Summary: Mist
Clouds: Few Clouds
Visibility: 6 miles , 10 km
Cloud details: Few Clouds 400 ft
2017/07/23 02:25 KRSP 230225Z AUTO 31010G28KT 6SM BR FEW004 21/21 A2986 RMK AO2 PK WND 30028/0216 RAE15 P0001 $
 
K2W6 - St Marys (duke), Maryland, USA
Distance from station: SE 58mi, 94km
Updated: Sat, 22-Jul-2017 10:37pm EDT
Overcast
Overcast
 Wind from E
Wind: E 12 mph , 19 km/h, Gust: 17 mph , 28 km/h
Temperature: 73°F , 23°C
Dew Point: 72°F , 22°C
Humidity: 94%
Barometer: 29.81 inHg , 1009.5 hPa
Clouds: Overcast
Visibility: 1 mile , 2 km
Cloud details: Mostly cloudy 1100 ft
Overcast 2200 ft
2017/07/23 02:37 K2W6 230237Z AUTO 08010G15KT 1SM BKN011 OVC022 23/22 A2981 RMK AO1
KDMW - Carroll Cnty, Maryland, USA
Distance from station: NNE 58mi, 94km
Updated: Sat, 22-Jul-2017 10:30pm EDT
Light rain, Clear
Light rain, Clear
 Wind from W
Wind: W 5 mph , 7 km/h
Temperature: 73°F , 23°C
Dew Point: 72°F , 22°C
Humidity: 94%
Barometer: 29.81 inHg , 1009.5 hPa
Summary: Light rain
Clouds: Clear
Visibility: 10 miles , 16 km
2017/07/23 02:30 KDMW 230230Z AUTO 28004KT 10SM -RA CLR 23/22 A2981 RMK AO2 LTG DSNT SE AND S P0001
KW29 - Stevensville, Maryland, USA
Distance from station: ENE 60mi, 96km
Updated: Sat, 22-Jul-2017 10:25pm EDT
Partly cloudy
Partly cloudy
 Wind from SSE
Wind: SSE 3 mph , 6 km/h
Temperature: 77°F , 25°C
Dew Point: 73°F , 23°C
Humidity: 89%
Barometer: 29.80 inHg , 1009.1 hPa
Clouds: Partly cloudy
Visibility: 10 miles , 16 km
Cloud details: Partly cloudy 9500 ft
Partly cloudy 11000 ft
2017/07/23 02:25 KW29 230225Z AUTO 16003KT 10SM SCT095 SCT110 25/23 A2980 RMK AO2 LTG DSNT S THRU W
 
KHGR - Hagerstown, Maryland, USA
Distance from station: NNW 63mi, 102km
Updated: Sat, 22-Jul-2017 9:53pm EDT
Light rain, Few clouds
Light rain, Few clouds
 Wind from S
Wind: S 5 mph , 7 km/h
Temperature: 73°F , 23°C
Dew Point: 72°F , 22°C
Humidity: 94%
Barometer: 29.81 inHg , 1009.5 hPa
Summary: Light rain
Clouds: Few Clouds
Visibility: 8 miles , 13 km
Cloud details: Few Clouds 12000 ft
2017/07/23 01:53 KHGR 230153Z 17004KT 8SM -RA FEW120 23/22 A2981 RMK AO2 SLP097 P0010 T02330222
KMTN - Baltimore/Martin, Maryland, USA
Distance from station: ENE 64mi, 103km
Updated: Sat, 22-Jul-2017 10:39pm EDT
Partly cloudy
Partly cloudy
 Wind from calm
Wind: Calm
Temperature: 77°F , 25°C
Dew Point: 73°F , 23°C
Humidity: 89%
Barometer: 29.78 inHg , 1008.5 hPa
Clouds: Partly cloudy
Visibility: 10 miles , 16 km
Cloud details: Partly cloudy 12000 ft
2017/07/23 02:39 KMTN 230239Z AUTO 00000KT 10SM SCT120 25/23 A2978 RMK AO2
KNHK - Patuxent River, Maryland, USA
Distance from station: SE 67mi, 108km
Updated: Sat, 22-Jul-2017 10:52pm EDT
Heavy thunderstorm, Rain, Mist, Overcast
Heavy thunderstorm, Rain, Mist, Overcast
 Wind from ESE
Wind: ESE 7 mph , 11 km/h
Temperature: 75°F , 24°C
Dew Point: 75°F , 24°C
Humidity: 100%
Barometer: 29.79 inHg , 1008.8 hPa
Summary: Heavy thunderstorm, Rain, Mist
Clouds: Overcast
Visibility: 5 miles , 8 km
Cloud details: Few Clouds 1400 ft
Mostly cloudy 6000 ft
Overcast 9500 ft
2017/07/23 02:52 KNHK 230252Z AUTO 12006KT 5SM +TSRA BR FEW014 BKN060 OVC095 24/24 A2979 RMK AO2 RAB30 CIG 050 RY24 SLP089 P0009 60011 T02390239 56010 $
 
KNUI - Webster Naval, Maryland, USA
Distance from station: SE 71mi, 114km
Updated: Sat, 22-Jul-2017 10:45pm EDT
Light thunderstorm, Rain, Mist, Overcast
Light thunderstorm, Rain, Mist, Overcast
 Wind from SE
Wind: SE 5 mph , 7 km/h
Temperature: 75°F , 24°C
Dew Point: 75°F , 24°C
Humidity: 100%
Barometer: 29.80 inHg , 1009.1 hPa
Summary: Light thunderstorm, Rain, Mist
Clouds: Overcast
Visibility: 3 miles , 5 km
Cloud details: Few Clouds 2500 ft
Mostly cloudy 6000 ft
Overcast 10000 ft
2017/07/23 02:45 KNUI 230245Z AUTO 13004KT 3SM -TSRA BR FEW025 BKN060 OVC100 24/24 A2980 RMK AO2 RAE00B31 P0016 T02440239
KESN - Easton/Newnam, Maryland, USA
Distance from station: E 73mi, 117km
Updated: Sat, 22-Jul-2017 10:38pm EDT
Partly cloudy
Partly cloudy
 Wind from calm
Wind: Calm
Temperature: 77°F , 25°C
Dew Point: 73°F , 23°C
Humidity: 89%
Barometer: 29.85 inHg , 1010.8 hPa
Clouds: Partly cloudy
Visibility: 10 miles , 16 km
Cloud details: Partly cloudy 8000 ft
Partly cloudy 10000 ft
2017/07/23 02:38 KESN 230238Z AUTO 00000KT 10SM SCT080 SCT100 25/23 A2985 RMK AO2 T02470227
KCGE - Cambridge-Dorch, Maryland, USA
Distance from station: ESE 77mi, 124km
Updated: Sat, 22-Jul-2017 10:30pm EDT
Mostly cloudy
Mostly cloudy
 Wind from SE
Wind: SE 12 mph , 19 km/h
Temperature: 75°F , 24°C
Dew Point: 73°F , 23°C
Humidity: 94%
Barometer: 29.78 inHg , 1008.5 hPa
Clouds: Mostly cloudy
Visibility: 10 miles , 16 km
Cloud details: Partly cloudy 2900 ft
Partly cloudy 3700 ft
Mostly cloudy 4600 ft
2017/07/23 02:30 KCGE 230230Z AUTO 14010KT 10SM SCT029 SCT037 BKN046 24/23 A2978 RMK A01
 
KAPG - Aberdeen/Phillip, Maryland, USA
Distance from station: NE 81mi, 130km
Updated: Sat, 22-Jul-2017 7:12pm EDT
NOT Current
Light rain, Few clouds
Light rain, Few clouds
 Wind from W
Wind: W 13 mph , 20 km/h
Temperature: 77°F , 25°C
Dew Point: 72°F , 22°C
Humidity: 83%
Barometer: 29.77 inHg , 1008.1 hPa
Summary: Light rain
Clouds: Few Clouds
Visibility: 10 miles , 16 km
Cloud details: Few Clouds 16000 ft
2017/07/22 23:12 KAPG 222312Z AUTO 26011KT 10SM -RA FEW160 25/22 A2977 RMK AO2 LTG DSNT S RAE05RAB12 SLP084
KCBE - Cumberland Reg, Maryland, USA
Distance from station: NW 91mi, 146km
Updated: Sat, 22-Jul-2017 10:30pm EDT
Partly cloudy
Partly cloudy
 Wind from calm
Wind: Calm
Temperature: 72°F , 22°C
Dew Point: 72°F , 22°C
Humidity: 100%
Barometer: 29.86 inHg , 1011.2 hPa
Clouds: Partly cloudy
Visibility: 7 miles , 11 km
Cloud details: Partly cloudy 600 ft
Partly cloudy 1500 ft
Partly cloudy 8500 ft
2017/07/23 02:30 KCBE 230230Z AUTO 00000KT 7SM SCT006 SCT015 SCT085 22/22 A2986 RMK AO1
KSBY - Salisbury, Maryland, USA
Distance from station: ESE 109mi, 175km
Updated: Sat, 22-Jul-2017 9:55pm EDT
Few Clouds
Few Clouds
 Wind from SSE
Wind: SSE 8 mph , 13 km/h
Temperature: 73°F , 23°C
Dew Point: 73°F , 23°C
Humidity: 100%
Barometer: 29.84 inHg , 1010.5 hPa
Clouds: Few Clouds
Cloud details: Few Clouds 9000 ft
2017/07/23 01:55 KSBY 230155Z 15007KT 9 FEW090 23/23 A2984 -RA
 
K2G4 - Garrett Co, Maryland, USA
Distance from station: WNW 115mi, 186km
Updated: Sat, 22-Jul-2017 10:30pm EDT
Mostly cloudy
Mostly cloudy
 Wind from WSW
Wind: WSW 9 mph , 15 km/h
Temperature: 64°F , 18°C
Dew Point: 64°F , 18°C
Humidity: 100%
Barometer: 29.91 inHg , 1012.9 hPa
Clouds: Mostly cloudy
Visibility: 9 10 miles , 16 km
Cloud details: Partly cloudy 2100 ft
Partly cloudy 2600 ft
Mostly cloudy 4100 ft
2017/07/23 02:30 K2G4 230230Z AUTO 24008KT 10SM SCT021 SCT026 BKN041 18/18 A2991 RMK AO1
KOXB - Ocean City, Maryland, USA
Distance from station: ESE 129mi, 208km
Updated: Sat, 22-Jul-2017 10:48pm EDT
Light rain, Clear
Light rain, Clear
 Wind from SSW
Wind: SSW 13 mph , 20 km/h
Temperature: 73°F , 23°C
Dew Point: 73°F , 23°C
Humidity: 100%
Barometer: 29.81 inHg , 1009.5 hPa
Summary: Light rain
Clouds: Clear
Visibility: 9 miles , 14 km
2017/07/23 02:48 KOXB 230248Z AUTO 21011KT 9SM -RA CLR 23/23 A2981 RMK AO2 LTG DSNT SE-W RAB37 P0001